Het weer levert geen direct gevaar op.    Er zijn geen waarschuwingen afgegeven.

Regen radar Meer informatie rain snow radar


Bezoek ook deze websites:

Template documentation
and downloads

And another site



METAR rapporten vliegvelden

Warning: A non-numeric value encountered in /customers/a/f/b/meteoassenede.be/httpd.www/weather28/metar/metarDisplay.php on line 166 Warning: A non-numeric value encountered in /customers/a/f/b/meteoassenede.be/httpd.www/weather28/metar/metarDisplay.php on line 166 Warning: A non-numeric value encountered in /customers/a/f/b/meteoassenede.be/httpd.www/weather28/metar/metarDisplay.php on line 166 Warning: A non-numeric value encountered in /customers/a/f/b/meteoassenede.be/httpd.www/weather28/metar/metarDisplay.php on line 166 Warning: A non-numeric value encountered in /customers/a/f/b/meteoassenede.be/httpd.www/weather28/metar/metarDisplay.php on line 166
   
EBBR - Brussels International Airport, Belgium
Afstand tot: W 14 km
Gewijzigd: 25-06-2021 02:20
Helder  
Helder  
   Wind: Zuiden 6 km/h
Wind: Zuiden 6 km/h
Temperatuur: 11°C
Dauwpunt: 10°C
Vochtigheid: 94%
Barometer: 1020 hPa
Zicht: meer dan 10 km
Bewolking: Helder
EBBR 250020Z 18003KT CAVOK 11/10 Q1020 TEMPO 4000 BR
EBBE - Beauvechain (Bevekom), Belgium
Afstand tot: ZZO 17 km
Gewijzigd: 25-06-2021 02:25
Nevel, Helder  
Nevel, Helder  
   Wind: ZZW 9 km/h
Wind: ZZW 9 km/h
Temperatuur: 13°C
Dauwpunt: 11°C
Vochtigheid: 88%
Barometer: 1020 hPa
Bewolking: Helder
Zicht: 4 km
Bewolking: Helder
EBBE 250025Z AUTO 20005KT 3900 BR NCD 13/11 Q1020 GRN
EBDT - Schaffen, Belgium
Afstand tot: ONO 29 km
Gewijzigd: 25-06-2021 02:25
Helder  
Helder  
   Wind: varieert 4 km/h
Wind: varieert 4 km/h
Temperatuur: 13°C
Dauwpunt: 11°C
Vochtigheid: 88%
Barometer: 1020 hPa
Bewolking: Helder
Zicht: 5 km
Bewolking: Helder
EBDT 250025Z AUTO VRB02KT 4500 NCD 13/11 Q1020 GRN
EBAW - Antwerp/Deurne, Belgium
Afstand tot: NNW 38 km
Gewijzigd: 25-06-2021 02:20
Helder  
Helder  
   Wind: ZZO 6 km/h
Wind: ZZO 6 km/h
Temperatuur: 9°C
Voelt als: 8°C
Dauwpunt: 8°C
Vochtigheid: 94%
Barometer: 1020 hPa
Zicht: meer dan 10 km
Bewolking: Helder
EBAW 250020Z AUTO 16003KT CAVOK 09/08 Q1020
EBCI - Charleroi/Gosselies, Belgium
Afstand tot: ZZW 51 km
Gewijzigd: 25-06-2021 02:20
Gedeeltelijk bewolkt  
Gedeeltelijk bewolkt  
   Wind: WZW 9 km/h
Wind: WZW 9 km/h
Temperatuur: 12°C
Dauwpunt: 11°C
Vochtigheid: 94%
Barometer: 1021 hPa
Bewolking: Gedeeltelijk bewolkt
Zicht: 6 km
Bewolking: Gedeeltelijk bewolkt
EBCI 250020Z 24005KT 6000 NSC 12/11 Q1021 NOSIG
EBLG - Bierset/Liege, Belgium
Afstand tot: OZO 60 km
Gewijzigd: 25-06-2021 02:20
Grotendeels bewolkt  
Grotendeels bewolkt  
   Wind: Westen 11 km/h
Wind: Westen 11 km/h
Temperatuur: 14°C
Dauwpunt: 13°C
Vochtigheid: 94%
Barometer: 1020 hPa
Bewolking: Grotendeels bewolkt
Zicht: 6 km
Bewolking: Grotendeels bewolkt 2600 ft
EBLG 250020Z 28006KT 6000 BKN026 14/13 Q1020 NOSIG

Script ontwikkeld door  Saratoga-weather.org Aangepast voor de template door  Weerstation Leuven

U vindt ons ook hier:

Het Weer Aktueel

UK Metoffice

WeatherCloud

Weather Underground

Benelux Weer Netwerk

AWEKAS

Apparatuur in gebruik:

Weerstation
Davis Vantage Pro2

Weerprogramma
Meteobridge

Weercomputer
TP-Link TL-MR3020

Webleverancier
One.com

Davis Vantage Pro2

Meteobridge

TP-Link TL-MR3020

One.com